Time;durP1;ratioP1;P1;durP2;ratioP2;P2;SDS_P1;SDS_P2;PMS_P1;PMS_P2;Temp;Humidity;BMP_temperature;BMP_pressure;BME280_temperature;BME280_humidity;BME280_pressure;Samples;Min_cycle;Max_cycle;Signal;HPM_P1;HPM_P2
2022/06/10 00:00:20;;;;;;;22.37;14.47;;;;;;;;;;5136433;27;20590;-70
2022/06/10 00:02:50;;;;;;;14.80;13.40;;;;;;;;;;5136315;27;20935;-70
2022/06/10 00:05:18;;;;;;;16.07;14.37;;;;;;;;;;5137484;27;20481;-70
2022/06/10 00:07:46;;;;;;;17.73;15.63;;;;;;;;;;5136280;27;21023;-70
2022/06/10 00:10:15;;;;;;;14.73;13.23;;;;;;;;;;5136621;27;20442;-70
2022/06/10 00:12:42;;;;;;;16.90;15.20;;;;;;;;;;5136255;27;20469;-70
2022/06/10 00:15:10;;;;;;;17.17;14.03;;;;;;;;;;5136028;27;20514;-70
2022/06/10 00:17:37;;;;;;;16.57;14.90;;;;;;;;;;5136357;27;20466;-70
2022/06/10 00:20:06;;;;;;;14.87;12.73;;;;;;;;;;5135701;27;20471;-70
2022/06/10 00:22:34;;;;;;;14.67;13.20;;;;;;;;;;5136023;27;20436;-70
2022/06/10 00:25:01;;;;;;;14.30;12.90;;;;;;;;;;5135921;27;20442;-70
2022/06/10 00:27:28;;;;;;;16.53;14.90;;;;;;;;;;5135623;27;20530;-70
2022/06/10 00:29:55;;;;;;;18.33;14.27;;;;;;;;;;5135903;27;20451;-70
2022/06/10 00:32:23;;;;;;;26.40;15.07;;;;;;;;;;5135897;27;20439;-70
2022/06/10 00:34:50;;;;;;;16.67;14.63;;;;;;;;;;5135756;27;20530;-70
2022/06/10 00:37:19;;;;;;;21.20;14.63;;;;;;;;;;5135883;27;20440;-70
2022/06/10 00:39:46;;;;;;;15.20;13.60;;;;;;;;;;5135577;27;20558;-70
2022/06/10 00:42:14;;;;;;;20.23;15.53;;;;;;;;;;5135365;27;20444;-70
2022/06/10 00:44:44;;;;;;;14.97;13.17;;;;;;;;;;5135569;27;20478;-70
2022/06/10 00:47:16;;;;;;;16.80;14.47;;;;;;;;;;5135226;27;20453;-70
2022/06/10 00:49:45;;;;;;;20.97;13.97;;;;;;;;;;5135320;27;20478;-70
2022/06/10 00:52:19;;;;;;;15.53;13.70;;;;;;;;;;5135569;27;20447;-70
2022/06/10 00:54:48;;;;;;;17.30;13.80;;;;;;;;;;5135166;27;20915;-70
2022/06/10 00:57:19;;;;;;;18.70;14.07;;;;;;;;;;5135018;27;20443;-70
2022/06/10 00:59:48;;;;;;;15.73;14.10;;;;;;;;;;5135404;27;20817;-70
2022/06/10 01:02:16;;;;;;;15.27;13.63;;;;;;;;;;5134940;27;20525;-70
2022/06/10 01:04:43;;;;;;;19.77;14.37;;;;;;;;;;5134847;27;20868;-69
2022/06/10 01:07:12;;;;;;;14.23;12.87;;;;;;;;;;5135183;27;20446;-69
2022/06/10 01:09:39;;;;;;;17.43;14.47;;;;;;;;;;5135061;27;20477;-69
2022/06/10 01:12:22;;;;;;;14.83;13.10;;;;;;;;;;5134763;27;20525;-69
2022/06/10 01:15:01;;;;;;;14.30;12.80;;;;;;;;;;5135264;27;20429;-69
2022/06/10 01:17:38;;;;;;;22.50;14.53;;;;;;;;;;5135061;27;20936;-70
2022/06/10 01:20:13;;;;;;;17.47;14.00;;;;;;;;;;5135011;27;20501;-69
2022/06/10 01:22:55;;;;;;;14.67;13.17;;;;;;;;;;5135048;27;20425;-69
2022/06/10 01:25:34;;;;;;;16.97;15.17;;;;;;;;;;5131912;27;20537;-69
2022/06/10 01:28:07;;;;;;;15.63;13.60;;;;;;;;;;5134649;27;20838;-70
2022/06/10 01:30:55;;;;;;;16.43;12.97;;;;;;;;;;5134953;27;20889;-70
2022/06/10 01:33:30;;;;;;;14.23;12.60;;;;;;;;;;5134542;27;20466;-69
2022/06/10 01:36:02;;;;;;;17.73;13.50;;;;;;;;;;5134663;27;20433;-70
2022/06/10 01:38:34;;;;;;;18.10;14.00;;;;;;;;;;5134830;27;20435;-70
2022/06/10 01:41:05;;;;;;;14.47;13.13;;;;;;;;;;5134361;27;20522;-70
2022/06/10 01:43:38;;;;;;;16.40;14.37;;;;;;;;;;5134431;27;20529;-69
2022/06/10 01:46:09;;;;;;;23.47;14.37;;;;;;;;;;5134281;27;20426;-69
2022/06/10 01:48:41;;;;;;;14.80;13.30;;;;;;;;;;5134371;27;20549;-69
2022/06/10 01:51:11;;;;;;;15.20;13.33;;;;;;;;;;5134597;27;20472;-69
2022/06/10 01:53:42;;;;;;;16.03;13.27;;;;;;;;;;5134501;27;20427;-70
2022/06/10 01:56:11;;;;;;;17.77;14.33;;;;;;;;;;5134817;27;20436;-69
2022/06/10 01:58:41;;;;;;;16.17;14.50;;;;;;;;;;5134369;28;20470;-69
2022/06/10 02:01:12;;;;;;;15.70;14.30;;;;;;;;;;5134324;28;20521;-69
2022/06/10 02:03:43;;;;;;;16.30;14.60;;;;;;;;;;5134637;28;20882;-69
2022/06/10 02:06:12;;;;;;;17.70;15.57;;;;;;;;;;5134072;28;20522;-69
2022/06/10 02:08:42;;;;;;;19.53;15.70;;;;;;;;;;5134343;28;20455;-69
2022/06/10 02:11:12;;;;;;;17.60;14.27;;;;;;;;;;5133959;28;20469;-68
2022/06/10 02:13:42;;;;;;;18.17;15.80;;;;;;;;;;5134379;28;20422;-69
2022/06/10 02:16:10;;;;;;;18.47;14.83;;;;;;;;;;5133848;28;20884;-69
2022/06/10 02:18:41;;;;;;;21.23;16.00;;;;;;;;;;5134322;28;20539;-69
2022/06/10 02:21:14;;;;;;;19.60;15.67;;;;;;;;;;5134413;28;20517;-70
2022/06/10 02:23:45;;;;;;;19.63;16.57;;;;;;;;;;5133965;28;20426;-70
2022/06/10 02:26:12;;;;;;;20.80;15.70;;;;;;;;;;5134140;28;20783;-68
2022/06/10 02:28:41;;;;;;;24.23;18.57;;;;;;;;;;5133972;28;20525;-69
2022/06/10 02:31:11;;;;;;;23.90;18.13;;;;;;;;;;5133723;28;20542;-68
2022/06/10 02:33:39;;;;;;;23.30;18.47;;;;;;;;;;5134197;28;20520;-69
2022/06/10 02:36:08;;;;;;;20.90;18.60;;;;;;;;;;5134138;28;20552;-69
2022/06/10 02:38:42;;;;;;;22.00;19.53;;;;;;;;;;5135067;27;20484;-69
2022/06/10 02:41:12;;;;;;;20.03;18.00;;;;;;;;;;5138234;27;20812;-69
2022/06/10 02:43:41;;;;;;;24.47;19.93;;;;;;;;;;5137680;27;20529;-68
2022/06/10 02:46:11;;;;;;;23.90;19.70;;;;;;;;;;5137863;27;20861;-68
2022/06/10 02:48:42;;;;;;;24.80;19.80;;;;;;;;;;5137941;27;20540;-68
2022/06/10 02:51:09;;;;;;;22.63;19.43;;;;;;;;;;5138166;27;20547;-68
2022/06/10 02:53:36;;;;;;;22.07;19.87;;;;;;;;;;5138206;27;20939;-68
2022/06/10 02:56:16;;;;;;;22.53;19.57;;;;;;;;;;5137698;27;20440;-69
2022/06/10 03:01:32;;;;;;;25.67;21.03;;;;;;;;;;5137731;27;20500;-68
2022/06/10 03:04:10;;;;;;;22.77;19.07;;;;;;;;;;5138201;27;20833;-68
2022/06/10 03:06:41;;;;;;;22.40;18.90;;;;;;;;;;5137777;27;20422;-68
2022/06/10 03:09:11;;;;;;;26.00;20.43;;;;;;;;;;5137238;27;20513;-69
2022/06/10 03:11:42;;;;;;;22.63;19.60;;;;;;;;;;5137576;27;20793;-69
2022/06/10 03:14:12;;;;;;;22.23;19.53;;;;;;;;;;5137228;27;20513;-70
2022/06/10 03:16:46;;;;;;;21.27;19.17;;;;;;;;;;5137179;27;20426;-69
2022/06/10 03:19:18;;;;;;;22.93;19.33;;;;;;;;;;5137512;27;20541;-68
2022/06/10 03:21:55;;;;;;;24.13;20.20;;;;;;;;;;5137504;27;20841;-69
2022/06/10 03:24:27;;;;;;;22.20;19.83;;;;;;;;;;5137502;27;20514;-69
2022/06/10 03:27:01;;;;;;;25.30;20.13;;;;;;;;;;5137316;27;20513;-69
2022/06/10 03:29:33;;;;;;;23.10;20.50;;;;;;;;;;5136929;27;20512;-75
2022/06/10 03:32:02;;;;;;;27.57;21.13;;;;;;;;;;5136767;27;20435;-73
2022/06/10 03:34:31;;;;;;;23.37;20.97;;;;;;;;;;5137070;27;20433;-73
2022/06/10 03:36:59;;;;;;;22.30;19.63;;;;;;;;;;5136567;27;20529;-72
2022/06/10 03:39:27;;;;;;;27.33;21.53;;;;;;;;;;5136875;27;20509;-73
2022/06/10 03:41:58;;;;;;;25.73;21.43;;;;;;;;;;5135318;27;20814;-73
2022/06/10 03:44:26;;;;;;;26.77;21.70;;;;;;;;;;5136185;27;20533;-74
2022/06/10 03:46:55;;;;;;;22.03;19.67;;;;;;;;;;5136328;27;20448;-73
2022/06/10 03:49:25;;;;;;;23.20;20.80;;;;;;;;;;5135395;27;20971;-72
2022/06/10 03:51:52;;;;;;;23.23;20.23;;;;;;;;;;5136382;27;20938;-74
2022/06/10 03:54:20;;;;;;;25.33;18.63;;;;;;;;;;5135878;27;20538;-74
2022/06/10 03:56:51;;;;;;;24.20;19.60;;;;;;;;;;5136107;27;20454;-74
2022/06/10 03:59:20;;;;;;;21.37;19.10;;;;;;;;;;5136315;27;20430;-74
2022/06/10 04:01:47;;;;;;;23.13;19.40;;;;;;;;;;5136205;27;20805;-73
2022/06/10 04:04:14;;;;;;;22.97;20.57;;;;;;;;;;5136287;27;20492;-74
2022/06/10 04:06:42;;;;;;;25.17;19.83;;;;;;;;;;5135963;27;20526;-73
2022/06/10 04:09:09;;;;;;;26.10;20.30;;;;;;;;;;5136004;27;20518;-74
2022/06/10 04:11:36;;;;;;;21.17;18.17;;;;;;;;;;5135838;27;20472;-74
2022/06/10 04:14:03;;;;;;;22.53;16.77;;;;;;;;;;5136140;27;20503;-74
2022/06/10 04:16:33;;;;;;;18.73;15.77;;;;;;;;;;5135845;27;20436;-74
2022/06/10 04:19:00;;;;;;;18.20;15.90;;;;;;;;;;5136265;27;20442;-73
2022/06/10 04:21:27;;;;;;;16.77;15.00;;;;;;;;;;5135379;27;21029;-74
2022/06/10 04:23:54;;;;;;;23.20;13.20;;;;;;;;;;5135707;27;20448;-74
2022/06/10 04:26:21;;;;;;;16.90;13.40;;;;;;;;;;5135522;27;20447;-74
2022/06/10 04:28:49;;;;;;;15.20;13.60;;;;;;;;;;5135575;27;20533;-73
2022/06/10 04:31:16;;;;;;;16.00;13.70;;;;;;;;;;5135787;27;20525;-73
2022/06/10 04:33:45;;;;;;;15.93;13.40;;;;;;;;;;5136025;27;20525;-73
2022/06/10 04:36:14;;;;;;;14.50;13.20;;;;;;;;;;5135380;27;20445;-72
2022/06/10 04:38:42;;;;;;;22.87;13.77;;;;;;;;;;5136117;27;20441;-72
2022/06/10 04:41:09;;;;;;;15.17;12.90;;;;;;;;;;5135226;27;20556;-68
2022/06/10 04:43:36;;;;;;;13.50;12.30;;;;;;;;;;5135399;27;20546;-67
2022/06/10 04:46:05;;;;;;;15.10;13.37;;;;;;;;;;5135495;27;20793;-67
2022/06/10 04:48:32;;;;;;;16.83;13.00;;;;;;;;;;5135662;27;20754;-67
2022/06/10 04:51:01;;;;;;;20.43;13.00;;;;;;;;;;5135826;27;20474;-67
2022/06/10 04:53:28;;;;;;;17.60;11.60;;;;;;;;;;5135235;27;20551;-68
2022/06/10 04:55:55;;;;;;;15.60;12.13;;;;;;;;;;5135015;27;20452;-68
2022/06/10 04:58:23;;;;;;;12.43;9.90;;;;;;;;;;5135162;27;20541;-68
2022/06/10 05:00:51;;;;;;;12.33;9.80;;;;;;;;;;5133833;27;20469;-68
2022/06/10 05:03:19;;;;;;;9.93;8.93;;;;;;;;;;5134910;27;20528;-68
2022/06/10 05:05:46;;;;;;;15.00;8.63;;;;;;;;;;5135183;27;20471;-68
2022/06/10 05:08:17;;;;;;;9.77;8.40;;;;;;;;;;5134853;27;20446;-68
2022/06/10 05:10:44;;;;;;;9.70;8.73;;;;;;;;;;5134654;27;20433;-68
2022/06/10 05:13:11;;;;;;;11.20;10.10;;;;;;;;;;5134649;27;20496;-68
2022/06/10 05:15:39;;;;;;;12.43;9.13;;;;;;;;;;5134701;27;20447;-68
2022/06/10 05:18:07;;;;;;;17.03;10.53;;;;;;;;;;5134630;27;20538;-73
2022/06/10 05:20:35;;;;;;;12.87;11.63;;;;;;;;;;5134586;27;20979;-67
2022/06/10 05:23:03;;;;;;;17.00;11.27;;;;;;;;;;5135092;27;20471;-68
2022/06/10 05:25:31;;;;;;;14.70;10.63;;;;;;;;;;5134565;27;20439;-66
2022/06/10 05:27:59;;;;;;;15.10;10.87;;;;;;;;;;5134510;27;20537;-67
2022/06/10 05:30:30;;;;;;;13.67;10.47;;;;;;;;;;5134789;27;20487;-67
2022/06/10 05:32:58;;;;;;;16.67;11.97;;;;;;;;;;5134835;27;20437;-66
2022/06/10 05:35:25;;;;;;;18.17;12.03;;;;;;;;;;5134777;27;20483;-66
2022/06/10 05:37:52;;;;;;;13.27;11.17;;;;;;;;;;5134580;27;20511;-66
2022/06/10 05:40:20;;;;;;;24.47;12.10;;;;;;;;;;5134619;27;20477;-66
2022/06/10 05:42:49;;;;;;;21.13;11.30;;;;;;;;;;5134298;27;20485;-67
2022/06/10 05:45:17;;;;;;;12.17;11.03;;;;;;;;;;5134253;27;20469;-66
2022/06/10 05:47:45;;;;;;;13.80;10.53;;;;;;;;;;5134015;27;20949;-66
2022/06/10 05:50:14;;;;;;;15.30;11.10;;;;;;;;;;5134312;27;20465;-67
2022/06/10 05:52:42;;;;;;;19.00;11.70;;;;;;;;;;5134439;27;20545;-66
2022/06/10 05:55:10;;;;;;;13.17;10.73;;;;;;;;;;5134944;27;20516;-68
2022/06/10 05:57:37;;;;;;;11.77;10.13;;;;;;;;;;5134347;27;20446;-66
2022/06/10 06:00:09;;;;;;;13.80;9.90;;;;;;;;;;5134004;28;20489;-67
2022/06/10 06:02:36;;;;;;;12.77;9.10;;;;;;;;;;5134033;28;20439;-66
2022/06/10 06:05:03;;;;;;;14.27;9.57;;;;;;;;;;5134649;28;20529;-67
2022/06/10 06:07:31;;;;;;;14.83;9.20;;;;;;;;;;5134349;28;20525;-67
2022/06/10 06:09:59;;;;;;;8.60;7.40;;;;;;;;;;5134154;28;20533;-67
2022/06/10 06:12:26;;;;;;;13.57;8.97;;;;;;;;;;5135079;27;20849;-66
2022/06/10 06:14:53;;;;;;;15.13;7.87;;;;;;;;;;5138422;27;20451;-66
2022/06/10 06:17:22;;;;;;;9.80;8.00;;;;;;;;;;5138142;27;20447;-66
2022/06/10 06:19:50;;;;;;;8.07;7.27;;;;;;;;;;5138396;27;20509;-66
2022/06/10 06:22:18;;;;;;;20.57;8.13;;;;;;;;;;5137967;27;20569;-66
2022/06/10 06:24:46;;;;;;;11.73;7.90;;;;;;;;;;5138329;27;20812;-66
2022/06/10 06:27:16;;;;;;;13.93;7.87;;;;;;;;;;5138304;27;20527;-67
2022/06/10 06:29:43;;;;;;;10.53;7.80;;;;;;;;;;5137856;27;20481;-67
2022/06/10 06:32:11;;;;;;;12.73;8.17;;;;;;;;;;5137885;27;20456;-67
2022/06/10 06:34:39;;;;;;;11.70;8.10;;;;;;;;;;5138065;27;20793;-67
2022/06/10 06:37:07;;;;;;;10.53;7.77;;;;;;;;;;5138121;27;20806;-67
2022/06/10 06:39:35;;;;;;;11.40;8.57;;;;;;;;;;5138218;27;20433;-68
2022/06/10 06:42:03;;;;;;;15.60;8.70;;;;;;;;;;5138044;27;20867;-68
2022/06/10 06:44:31;;;;;;;15.93;7.33;;;;;;;;;;5137907;27;20780;-68
2022/06/10 06:46:58;;;;;;;13.40;6.67;;;;;;;;;;5137713;27;20525;-68
2022/06/10 06:49:28;;;;;;;13.03;7.10;;;;;;;;;;5137743;27;20561;-68
2022/06/10 06:51:57;;;;;;;11.47;7.63;;;;;;;;;;5137884;27;20523;-67
2022/06/10 06:54:25;;;;;;;15.03;7.47;;;;;;;;;;5137695;27;20490;-68
2022/06/10 06:56:52;;;;;;;13.47;7.60;;;;;;;;;;5137803;27;20456;-68
2022/06/10 06:59:19;;;;;;;13.53;7.03;;;;;;;;;;5137338;27;20489;-67
2022/06/10 07:01:46;;;;;;;14.47;7.20;;;;;;;;;;5137571;27;20511;-68
2022/06/10 07:04:14;;;;;;;14.03;7.03;;;;;;;;;;5137240;27;20454;-68
2022/06/10 07:06:43;;;;;;;12.73;6.90;;;;;;;;;;5137212;27;20530;-67
2022/06/10 07:09:13;;;;;;;11.50;6.73;;;;;;;;;;5137371;27;20444;-67
2022/06/10 07:11:41;;;;;;;16.73;6.03;;;;;;;;;;5138311;27;20450;-67
2022/06/10 07:14:08;;;;;;;14.87;6.27;;;;;;;;;;5137225;27;20432;-67
2022/06/10 07:16:35;;;;;;;10.73;6.10;;;;;;;;;;5137684;27;20446;-67
2022/06/10 07:19:03;;;;;;;8.57;7.03;;;;;;;;;;5136915;27;20805;-66
2022/06/10 07:21:30;;;;;;;10.40;6.70;;;;;;;;;;5136940;27;20507;-67
2022/06/10 07:23:57;;;;;;;12.00;5.80;;;;;;;;;;5136221;27;20527;-66
2022/06/10 07:26:26;;;;;;;11.20;5.63;;;;;;;;;;5137503;27;20525;-67
2022/06/10 07:28:53;;;;;;;10.03;5.57;;;;;;;;;;5137142;27;20479;-66
2022/06/10 07:31:21;;;;;;;12.83;5.60;;;;;;;;;;5137131;27;20930;-67
2022/06/10 07:33:48;;;;;;;8.60;5.60;;;;;;;;;;5136923;27;20439;-66
2022/06/10 07:36:15;;;;;;;12.53;5.13;;;;;;;;;;5137620;27;20438;-67
2022/06/10 07:38:42;;;;;;;10.00;4.93;;;;;;;;;;5136999;27;20467;-67
2022/06/10 07:43:56;;;;;;;9.43;4.43;;;;;;;;;;5136566;27;20393;-66
2022/06/10 07:46:24;;;;;;;11.70;5.20;;;;;;;;;;5136914;27;20544;-67
2022/06/10 07:48:51;;;;;;;9.20;4.70;;;;;;;;;;5136202;27;21008;-66
2022/06/10 07:51:19;;;;;;;12.23;4.60;;;;;;;;;;5136109;27;20491;-67
2022/06/10 07:53:47;;;;;;;9.43;5.27;;;;;;;;;;5136739;27;20852;-68
2022/06/10 07:56:15;;;;;;;10.33;4.90;;;;;;;;;;5136520;27;20467;-67
2022/06/10 07:58:42;;;;;;;7.50;4.00;;;;;;;;;;5137074;27;20437;-67
2022/06/10 08:01:11;;;;;;;9.13;5.13;;;;;;;;;;5136441;27;20482;-67
2022/06/10 08:03:38;;;;;;;9.33;4.70;;;;;;;;;;5136481;27;20451;-67
2022/06/10 08:06:06;;;;;;;11.17;5.70;;;;;;;;;;5136344;27;20440;-66
2022/06/10 08:08:33;;;;;;;10.83;5.03;;;;;;;;;;5136689;27;20850;-67
2022/06/10 08:11:00;;;;;;;8.70;4.30;;;;;;;;;;5135539;27;20445;-65
2022/06/10 08:13:29;;;;;;;12.67;4.97;;;;;;;;;;5136494;27;20669;-66
2022/06/10 08:15:56;;;;;;;9.30;5.20;;;;;;;;;;5136171;27;20435;-67
2022/06/10 08:18:24;;;;;;;13.20;4.87;;;;;;;;;;5136414;27;20494;-67
2022/06/10 08:23:41;;;;;;;11.27;5.00;;;;;;;;;;5135918;27;20763;-67
2022/06/10 08:26:09;;;;;;;9.83;5.17;;;;;;;;;;5135845;27;20446;-66
2022/06/10 08:28:37;;;;;;;7.23;4.40;;;;;;;;;;5135964;27;20527;-67
2022/06/10 08:31:04;;;;;;;12.40;5.27;;;;;;;;;;5136017;27;20475;-66
2022/06/10 08:33:33;;;;;;;8.50;5.40;;;;;;;;;;5135468;27;20471;-66
2022/06/10 08:36:01;;;;;;;13.37;5.40;;;;;;;;;;5135277;27;20445;-67
2022/06/10 08:38:28;;;;;;;11.40;4.80;;;;;;;;;;5135694;27;20530;-67
2022/06/10 08:40:58;;;;;;;17.40;6.80;;;;;;;;;;5135577;27;20522;-67
2022/06/10 08:43:34;;;;;;;9.50;4.77;;;;;;;;;;5135886;27;20438;-67
2022/06/10 08:46:09;;;;;;;10.53;6.20;;;;;;;;;;5135568;27;20433;-67
2022/06/10 08:48:43;;;;;;;7.43;4.50;;;;;;;;;;5136401;27;20447;-68
2022/06/10 08:51:16;;;;;;;8.07;4.63;;;;;;;;;;5135899;27;20551;-67
2022/06/10 08:53:53;;;;;;;6.73;4.40;;;;;;;;;;5135485;27;20427;-67
2022/06/10 08:56:23;;;;;;;15.00;5.07;;;;;;;;;;5135163;27;20424;-67
2022/06/10 08:58:55;;;;;;;10.90;4.80;;;;;;;;;;5135329;27;20438;-68
2022/06/10 09:01:23;;;;;;;10.43;4.00;;;;;;;;;;5134854;27;20461;-68
2022/06/10 09:03:56;;;;;;;7.13;4.60;;;;;;;;;;5134965;27;21004;-68
2022/06/10 09:06:28;;;;;;;7.57;4.03;;;;;;;;;;5134944;27;20513;-68
2022/06/10 09:08:58;;;;;;;7.73;4.37;;;;;;;;;;5136102;27;20433;-67
2022/06/10 09:11:27;;;;;;;8.70;4.70;;;;;;;;;;5135063;27;20482;-67
2022/06/10 09:13:56;;;;;;;9.37;3.63;;;;;;;;;;5135186;27;20535;-67
2022/06/10 09:16:27;;;;;;;11.20;4.40;;;;;;;;;;5134750;27;20440;-69
2022/06/10 09:19:04;;;;;;;8.93;3.97;;;;;;;;;;5134915;27;20444;-67
2022/06/10 09:21:33;;;;;;;9.40;4.57;;;;;;;;;;5135006;27;20472;-68
2022/06/10 09:24:03;;;;;;;6.90;4.30;;;;;;;;;;5134676;27;20444;-67
2022/06/10 09:26:36;;;;;;;9.23;5.23;;;;;;;;;;5134817;27;20444;-67
2022/06/10 09:29:03;;;;;;;9.17;4.77;;;;;;;;;;5135054;27;20450;-67
2022/06/10 09:31:35;;;;;;;9.93;4.30;;;;;;;;;;5134891;27;20532;-67
2022/06/10 09:34:09;;;;;;;16.30;4.77;;;;;;;;;;5135193;27;20429;-67
2022/06/10 09:36:39;;;;;;;7.17;3.80;;;;;;;;;;5134757;27;20516;-68
2022/06/10 09:40:35;;;;;;;10.80;4.27;;;;;;;;;;5135021;27;20430;-68
2022/06/10 09:42:00;;;;;;;12.03;6.10;;;;;;;;;;5134173;27;20460;-68
2022/06/10 09:44:33;;;;;;;11.23;4.40;;;;;;;;;;5134968;27;20503;-67
2022/06/10 09:47:09;;;;;;;11.13;4.37;;;;;;;;;;5133749;27;20432;-67
2022/06/10 09:49:45;;;;;;;10.03;3.90;;;;;;;;;;5134612;27;20975;-67
2022/06/10 09:52:16;;;;;;;12.93;4.70;;;;;;;;;;5134475;27;20445;-68
2022/06/10 09:54:57;;;;;;;8.77;4.20;;;;;;;;;;5134704;27;20460;-68
2022/06/10 09:57:45;;;;;;;10.83;3.73;;;;;;;;;;5134579;27;20512;-68
2022/06/10 10:00:17;;;;;;;6.77;3.27;;;;;;;;;;5135115;27;20506;-67
2022/06/10 10:02:49;;;;;;;7.60;3.50;;;;;;;;;;5134523;28;20549;-68
2022/06/10 10:05:23;;;;;;;9.20;2.93;;;;;;;;;;5134376;28;20981;-68
2022/06/10 10:07:51;;;;;;;6.43;2.90;;;;;;;;;;5134315;28;20467;-68
2022/06/10 10:10:24;;;;;;;6.60;3.50;;;;;;;;;;5133935;28;20472;-68
2022/06/10 10:12:58;;;;;;;9.20;3.33;;;;;;;;;;5134054;28;20434;-67
2022/06/10 10:15:29;;;;;;;11.13;3.53;;;;;;;;;;5133998;28;20907;-67
2022/06/10 10:18:08;;;;;;;8.10;3.47;;;;;;;;;;5134396;28;20857;-68
2022/06/10 10:20:44;;;;;;;6.37;3.33;;;;;;;;;;5134047;28;20422;-67
2022/06/10 10:23:14;;;;;;;9.43;3.80;;;;;;;;;;5133814;28;20461;-67
2022/06/10 10:25:44;;;;;;;9.93;3.40;;;;;;;;;;5133906;28;20430;-68
2022/06/10 10:28:16;;;;;;;5.30;3.10;;;;;;;;;;5133881;28;20441;-67
2022/06/10 10:30:45;;;;;;;6.80;3.30;;;;;;;;;;5134584;28;20452;-67
2022/06/10 10:33:14;;;;;;;8.70;3.90;;;;;;;;;;5133762;28;20871;-68
2022/06/10 10:35:44;;;;;;;10.60;3.20;;;;;;;;;;5134132;28;20856;-68
2022/06/10 10:38:12;;;;;;;12.50;5.93;;;;;;;;;;5134057;28;20472;-68
2022/06/10 10:40:41;;;;;;;5.10;3.50;;;;;;;;;;5134206;28;20457;-68
2022/06/10 10:43:12;;;;;;;7.33;3.80;;;;;;;;;;5133877;28;20564;-68
2022/06/10 10:45:40;;;;;;;6.63;3.77;;;;;;;;;;5133875;28;20469;-68
2022/06/10 10:48:15;;;;;;;7.63;3.90;;;;;;;;;;5133980;28;20536;-68
2022/06/10 10:50:53;;;;;;;8.53;3.73;;;;;;;;;;5133873;28;20469;-67
2022/06/10 10:53:22;;;;;;;5.80;3.90;;;;;;;;;;5134328;28;20521;-68
2022/06/10 10:55:51;;;;;;;8.23;3.60;;;;;;;;;;5133605;28;20901;-68
2022/06/10 10:58:21;;;;;;;5.33;3.90;;;;;;;;;;5133896;27;20478;-67
2022/06/10 11:00:58;;;;;;;7.03;3.30;;;;;;;;;;5136368;27;20442;-68
2022/06/10 11:03:27;;;;;;;6.80;3.90;;;;;;;;;;5137256;27;20993;-67
2022/06/10 11:05:57;;;;;;;6.07;3.70;;;;;;;;;;5137628;27;20479;-68
2022/06/10 11:08:26;;;;;;;4.37;2.80;;;;;;;;;;5137469;27;20435;-68
2022/06/10 11:10:56;;;;;;;7.50;3.40;;;;;;;;;;5137524;27;20427;-68
2022/06/10 11:13:30;;;;;;;5.70;3.23;;;;;;;;;;5137200;27;20930;-68
2022/06/10 11:15:57;;;;;;;10.13;4.00;;;;;;;;;;5137821;27;20518;-67
2022/06/10 11:18:24;;;;;;;8.00;3.70;;;;;;;;;;5137285;27;20470;-67
2022/06/10 11:20:51;;;;;;;6.67;3.30;;;;;;;;;;5137080;27;20446;-68
2022/06/10 11:23:22;;;;;;;7.47;3.00;;;;;;;;;;5137376;27;20775;-68
2022/06/10 11:26:03;;;;;;;5.53;3.63;;;;;;;;;;5137601;27;20438;-68
2022/06/10 11:28:34;;;;;;;8.93;3.27;;;;;;;;;;5137379;27;20631;-68
2022/06/10 11:31:01;;;;;;;9.90;3.27;;;;;;;;;;5137992;27;20451;-68
2022/06/10 11:33:32;;;;;;;7.07;3.00;;;;;;;;;;5137097;27;20446;-68
2022/06/10 11:36:01;;;;;;;4.53;2.90;;;;;;;;;;5137200;27;20422;-68
2022/06/10 11:38:31;;;;;;;9.43;3.57;;;;;;;;;;5137013;27;20868;-68
2022/06/10 11:40:59;;;;;;;6.60;3.43;;;;;;;;;;5136650;27;20445;-68
2022/06/10 11:43:28;;;;;;;8.90;3.07;;;;;;;;;;5136934;27;20515;-68
2022/06/10 11:45:57;;;;;;;6.83;3.83;;;;;;;;;;5137459;27;20850;-68
2022/06/10 11:48:39;;;;;;;7.73;3.23;;;;;;;;;;5136495;27;20492;-68
2022/06/10 11:51:12;;;;;;;6.97;3.10;;;;;;;;;;5137051;27;20480;-68
2022/06/10 11:53:44;;;;;;;7.80;3.47;;;;;;;;;;5136429;27;20475;-68
2022/06/10 12:01:49;;;;;;;5.23;2.43;;;;;;;;;;5136403;27;20432;-68
2022/06/10 12:04:19;;;;;;;4.00;2.40;;;;;;;;;;5136088;27;20473;-68
2022/06/10 12:06:50;;;;;;;8.30;2.70;;;;;;;;;;5136429;27;20454;-69
2022/06/10 12:09:22;;;;;;;5.10;2.80;;;;;;;;;;5136493;27;20840;-68
2022/06/10 12:11:52;;;;;;;4.20;2.10;;;;;;;;;;5135846;27;20432;-68
2022/06/10 12:14:21;;;;;;;6.00;2.70;;;;;;;;;;5135908;27;21033;-68
2022/06/10 12:16:50;;;;;;;3.37;2.40;;;;;;;;;;5136307;27;20502;-68
2022/06/10 12:19:20;;;;;;;4.83;2.10;;;;;;;;;;5136688;27;20451;-68
2022/06/10 12:21:48;;;;;;;4.60;2.20;;;;;;;;;;5136244;27;20477;-68
2022/06/10 12:24:16;;;;;;;4.50;2.30;;;;;;;;;;5136055;27;20451;-67
2022/06/10 12:26:49;;;;;;;2.90;1.60;;;;;;;;;;5136274;27;20912;-68
2022/06/10 12:29:19;;;;;;;8.23;2.53;;;;;;;;;;5136190;27;20499;-68
2022/06/10 12:31:52;;;;;;;4.03;2.30;;;;;;;;;;5136764;27;20431;-68
2022/06/10 12:34:23;;;;;;;6.13;2.10;;;;;;;;;;5135717;27;20928;-69
2022/06/10 12:36:52;;;;;;;6.93;2.30;;;;;;;;;;5136279;27;20454;-67
2022/06/10 12:39:22;;;;;;;5.17;2.50;;;;;;;;;;5136009;27;20456;-68
2022/06/10 12:41:54;;;;;;;6.80;2.63;;;;;;;;;;5135814;27;20444;-68
2022/06/10 12:44:23;;;;;;;4.90;2.37;;;;;;;;;;5135937;27;20515;-68
2022/06/10 12:46:53;;;;;;;4.53;1.87;;;;;;;;;;5135729;27;20449;-68
2022/06/10 12:49:26;;;;;;;8.30;2.00;;;;;;;;;;5135734;27;20480;-68
2022/06/10 12:52:00;;;;;;;5.63;1.90;;;;;;;;;;5135831;27;20465;-69
2022/06/10 12:54:30;;;;;;;5.10;1.90;;;;;;;;;;5135202;27;20914;-69
2022/06/10 12:57:12;;;;;;;5.00;1.90;;;;;;;;;;5135484;27;20474;-72
2022/06/10 12:59:41;;;;;;;4.30;2.40;;;;;;;;;;5134350;27;20473;-69
2022/06/10 13:02:28;;;;;;;3.77;1.90;;;;;;;;;;5135670;27;20803;-68
2022/06/10 13:04:58;;;;;;;2.60;1.97;;;;;;;;;;5135162;27;20532;-68
2022/06/10 13:07:27;;;;;;;7.67;2.20;;;;;;;;;;5135264;27;20457;-73
2022/06/10 13:09:55;;;;;;;6.03;1.83;;;;;;;;;;5133130;27;20464;-69
2022/06/10 13:12:36;;;;;;;5.23;2.10;;;;;;;;;;5134199;27;20451;-67
2022/06/10 13:15:16;;;;;;;6.30;2.30;;;;;;;;;;5134173;27;20440;-69
2022/06/10 13:17:53;;;;;;;3.80;1.80;;;;;;;;;;5135165;27;20444;-69
2022/06/10 13:20:22;;;;;;;2.93;2.00;;;;;;;;;;5135115;27;20465;-69
2022/06/10 13:23:08;;;;;;;4.20;2.20;;;;;;;;;;5133886;27;20512;-68
2022/06/10 13:25:35;;;;;;;2.93;2.00;;;;;;;;;;5133024;27;20448;-69
2022/06/10 13:28:02;;;;;;;5.60;2.30;;;;;;;;;;5134136;27;20441;-69
2022/06/10 13:30:34;;;;;;;5.97;2.10;;;;;;;;;;5134421;27;20441;-68
2022/06/10 13:33:05;;;;;;;5.53;2.20;;;;;;;;;;5134199;27;20446;-69
2022/06/10 13:35:33;;;;;;;6.80;2.43;;;;;;;;;;5134295;27;20431;-69
2022/06/10 13:38:02;;;;;;;4.60;2.50;;;;;;;;;;5134317;27;20554;-69
2022/06/10 13:40:31;;;;;;;3.60;2.73;;;;;;;;;;5134373;27;20537;-68
2022/06/10 13:43:00;;;;;;;5.27;2.60;;;;;;;;;;5134250;27;20977;-68
2022/06/10 13:45:30;;;;;;;4.00;3.10;;;;;;;;;;5133850;27;20847;-68
2022/06/10 13:48:04;;;;;;;11.37;3.00;;;;;;;;;;5134327;27;20876;-71
2022/06/10 13:53:28;;;;;;;3.90;2.70;;;;;;;;;;5118372;27;20429;-72
2022/06/10 13:55:56;;;;;;;5.77;2.70;;;;;;;;;;5134103;27;20441;-72
2022/06/10 13:58:25;;;;;;;6.23;3.07;;;;;;;;;;5134524;27;20457;-71
2022/06/10 14:00:53;;;;;;;7.47;2.83;;;;;;;;;;5134285;27;20528;-71
2022/06/10 14:03:38;;;;;;;5.00;2.90;;;;;;;;;;5134135;28;20572;-71
2022/06/10 14:06:06;;;;;;;5.00;2.80;;;;;;;;;;5133273;28;20422;-71
2022/06/10 14:08:36;;;;;;;7.50;3.00;;;;;;;;;;5133952;28;20488;-71
2022/06/10 14:11:12;;;;;;;5.43;2.67;;;;;;;;;;5133918;28;20484;-72
2022/06/10 14:13:39;;;;;;;7.93;2.87;;;;;;;;;;5134544;28;20527;-71
2022/06/10 14:16:16;;;;;;;4.07;2.73;;;;;;;;;;5133866;28;20446;-71
2022/06/10 14:18:45;;;;;;;4.60;2.67;;;;;;;;;;5134427;28;20917;-71
2022/06/10 14:21:13;;;;;;;5.33;2.73;;;;;;;;;;5133776;28;20485;-72
2022/06/10 14:23:55;;;;;;;6.87;2.90;;;;;;;;;;5133747;28;20468;-71
2022/06/10 14:26:24;;;;;;;3.40;2.67;;;;;;;;;;5133464;28;20460;-72
2022/06/10 14:28:54;;;;;;;3.90;2.80;;;;;;;;;;5133662;28;20457;-71
2022/06/10 14:31:25;;;;;;;3.57;3.20;;;;;;;;;;5133843;28;20527;-71
2022/06/10 14:33:55;;;;;;;3.90;2.50;;;;;;;;;;5136419;27;20429;-71
2022/06/10 14:36:24;;;;;;;4.00;2.77;;;;;;;;;;5138058;27;20521;-71
2022/06/10 14:39:06;;;;;;;6.80;3.00;;;;;;;;;;5137870;27;20452;-71
2022/06/10 14:41:34;;;;;;;6.80;3.47;;;;;;;;;;5138089;27;20490;-71
2022/06/10 14:44:03;;;;;;;6.50;2.77;;;;;;;;;;5137661;27;20996;-72
2022/06/10 14:46:31;;;;;;;6.03;3.10;;;;;;;;;;5137946;27;20467;-70
2022/06/10 14:49:01;;;;;;;8.90;2.80;;;;;;;;;;5138614;27;20537;-70
2022/06/10 14:51:31;;;;;;;4.90;2.80;;;;;;;;;;5137797;27;20429;-70
2022/06/10 14:53:59;;;;;;;7.90;3.60;;;;;;;;;;5138013;27;20530;-71
2022/06/10 14:56:32;;;;;;;5.20;2.83;;;;;;;;;;5137508;27;20473;-71
2022/06/10 14:58:59;;;;;;;7.23;2.90;;;;;;;;;;5137770;27;20800;-70
2022/06/10 15:01:28;;;;;;;5.10;2.90;;;;;;;;;;5136005;27;20533;-70
2022/06/10 15:03:56;;;;;;;8.80;2.90;;;;;;;;;;5137101;27;20516;-70